Riverton, Wyoming
Current Conditions -  °F | °C
As of 9:53 AM on Wednesday 22 Oct 2014 (Local Time) from KRIW Reporting Station
Clear Clear  
Wind Chill: 41°   Ceiling: Unl
Heat Index: 46°   Visibility: 10mi
Dew Point: 26°   Wind: 12mph
Humidity: 46%   Direction: 300°WNW
Pressure: 30.13"   Gusts: NA
Location:  43.02°N, 108.38°W
Report Text: KRIW 221553Z AUTO 30010KT 10SM CLR 08/M03 A3013 RMK AO2 SLP187 T00781033
Loading
Personal Weather Stations






























Interactive Weather Map New forecast layout! Learn more

10-Day Weather Forecast

Advertisements
Track Severe Weather on mobile